Time;durP1;ratioP1;P1;durP2;ratioP2;P2;SDS_P1;SDS_P2;PMS_P1;PMS_P2;Temp;Humidity;BMP_temperature;BMP_pressure;BME280_temperature;BME280_humidity;BME280_pressure;Samples;Min_cycle;Max_cycle;Signal;HPM_P1;HPM_P2
2023/10/10 00:03:20;;;;;;;19.42;11.85;;;;;;;;;;10536308;28;20212;-63
2023/10/10 00:08:28;;;;;;;22.85;11.50;;;;;;;;;;10536491;28;20028;-63
2023/10/10 00:13:29;;;;;;;23.23;10.03;;;;;;;;;;10536007;28;20434;-63
2023/10/10 00:18:30;;;;;;;16.50;11.38;;;;;;;;;;10535807;28;20436;-63
2023/10/10 00:23:34;;;;;;;15.75;9.95;;;;;;;;;;10535961;28;20023;-63
2023/10/10 00:28:35;;;;;;;22.85;11.27;;;;;;;;;;10535650;28;20398;-63
2023/10/10 00:33:40;;;;;;;17.90;11.18;;;;;;;;;;10535099;28;20028;-63
2023/10/10 00:38:42;;;;;;;15.02;10.25;;;;;;;;;;10535123;28;20032;-64
2023/10/10 00:43:43;;;;;;;20.50;10.82;;;;;;;;;;10535348;28;20075;-63
2023/10/10 00:48:44;;;;;;;15.50;10.23;;;;;;;;;;10534354;28;20067;-63
2023/10/10 00:53:45;;;;;;;22.67;11.07;;;;;;;;;;10534949;28;20119;-61
2023/10/10 00:58:48;;;;;;;21.70;10.75;;;;;;;;;;10533587;28;20070;-60
2023/10/10 01:03:50;;;;;;;17.35;10.73;;;;;;;;;;10534111;28;20056;-62
2023/10/10 01:14:18;;;;;;;16.92;10.13;;;;;;;;;;10534259;28;20024;-62
2023/10/10 01:19:19;;;;;;;16.27;10.27;;;;;;;;;;10534064;28;20032;-60
2023/10/10 01:24:21;;;;;;;17.20;9.90;;;;;;;;;;10533331;28;20031;-63
2023/10/10 01:29:25;;;;;;;18.20;10.15;;;;;;;;;;10533761;28;20197;-63
2023/10/10 01:34:33;;;;;;;16.05;9.65;;;;;;;;;;10533797;28;20027;-63
2023/10/10 01:39:49;;;;;;;23.95;10.63;;;;;;;;;;10533462;28;20047;-62
2023/10/10 01:44:51;;;;;;;18.38;10.23;;;;;;;;;;10531857;28;20036;-62
2023/10/10 01:49:58;;;;;;;19.50;10.15;;;;;;;;;;10532701;28;20061;-61
2023/10/10 01:55:00;;;;;;;19.70;10.48;;;;;;;;;;10532657;28;20032;-62
2023/10/10 02:00:11;;;;;;;16.65;10.52;;;;;;;;;;10532531;28;20032;-62
2023/10/10 02:05:13;;;;;;;18.13;9.68;;;;;;;;;;10537561;28;20032;-63
2023/10/10 02:10:13;;;;;;;14.68;9.40;;;;;;;;;;10541082;28;20024;-63
2023/10/10 02:15:26;;;;;;;19.15;9.80;;;;;;;;;;10541649;28;20486;-63
2023/10/10 02:30:37;;;;;;;15.13;9.23;;;;;;;;;;10540831;28;20182;-63
2023/10/10 02:35:54;;;;;;;15.40;9.25;;;;;;;;;;10539689;28;20044;-62
2023/10/10 02:40:56;;;;;;;16.60;9.25;;;;;;;;;;10540053;28;20040;-62
2023/10/10 02:45:58;;;;;;;24.20;9.55;;;;;;;;;;10540341;28;20036;-62
2023/10/10 02:51:03;;;;;;;16.38;8.68;;;;;;;;;;10538947;28;20062;-63
2023/10/10 02:56:09;;;;;;;17.75;9.27;;;;;;;;;;10539391;28;20475;-63
2023/10/10 03:01:19;;;;;;;14.52;8.18;;;;;;;;;;10538421;28;20028;-63
2023/10/10 03:06:28;;;;;;;16.58;8.63;;;;;;;;;;10538643;28;20119;-63
2023/10/10 03:11:52;;;;;;;15.00;8.15;;;;;;;;;;10539718;28;20063;-62
2023/10/10 03:16:59;;;;;;;17.50;8.32;;;;;;;;;;10539007;28;20020;-64
2023/10/10 05:23:48;;;;;;;21.13;7.63;;;;;;;;;;10533784;28;20475;-62
2023/10/10 05:28:49;;;;;;;15.48;7.35;;;;;;;;;;10533548;28;20024;-64
2023/10/10 05:33:50;;;;;;;15.20;6.80;;;;;;;;;;10532521;28;20468;-63
2023/10/10 05:38:51;;;;;;;16.90;7.15;;;;;;;;;;10532218;28;20086;-63
2023/10/10 05:43:52;;;;;;;15.00;6.63;;;;;;;;;;10532822;28;20073;-63
2023/10/10 05:48:52;;;;;;;17.17;6.97;;;;;;;;;;10531867;28;20052;-63
2023/10/10 05:53:54;;;;;;;16.85;6.65;;;;;;;;;;10532178;28;20507;-63
2023/10/10 05:58:54;;;;;;;14.68;6.97;;;;;;;;;;10532636;28;20102;-63
2023/10/10 06:03:56;;;;;;;16.60;6.82;;;;;;;;;;10533078;28;20027;-62
2023/10/10 06:09:04;;;;;;;13.32;6.22;;;;;;;;;;10532772;28;20035;-64
2023/10/10 06:14:05;;;;;;;23.33;6.97;;;;;;;;;;10532821;28;20032;-64
2023/10/10 06:19:05;;;;;;;20.92;7.10;;;;;;;;;;10531689;28;20460;-63
2023/10/10 06:24:08;;;;;;;16.40;7.43;;;;;;;;;;10532080;28;20016;-63
2023/10/10 06:29:09;;;;;;;17.08;7.07;;;;;;;;;;10532369;28;20036;-63
2023/10/10 06:34:22;;;;;;;23.40;7.47;;;;;;;;;;10532345;28;20027;-63
2023/10/10 06:39:32;;;;;;;24.63;8.88;;;;;;;;;;10531611;28;20024;-62
2023/10/10 06:44:34;;;;;;;26.20;7.78;;;;;;;;;;10532703;28;20028;-62
2023/10/10 06:49:43;;;;;;;20.20;7.65;;;;;;;;;;10531942;28;20415;-62
2023/10/10 06:54:53;;;;;;;15.90;7.75;;;;;;;;;;10539349;28;20036;-62
2023/10/10 06:59:54;;;;;;;20.63;7.18;;;;;;;;;;10539232;28;20487;-61
2023/10/10 07:04:54;;;;;;;17.20;8.73;;;;;;;;;;10538859;28;20028;-64
2023/10/10 07:09:57;;;;;;;23.90;8.27;;;;;;;;;;10538895;28;20031;-63
2023/10/10 07:15:00;;;;;;;22.05;7.40;;;;;;;;;;10538563;28;20020;-63
2023/10/10 07:25:08;;;;;;;16.63;7.03;;;;;;;;;;10538635;28;20107;-59
2023/10/10 07:30:16;;;;;;;24.52;7.97;;;;;;;;;;10538811;28;20051;-62
2023/10/10 07:35:25;;;;;;;12.45;6.78;;;;;;;;;;10537469;28;20509;-58
2023/10/10 07:40:30;;;;;;;14.30;6.10;;;;;;;;;;10537851;28;20540;-61
2023/10/10 07:45:33;;;;;;;12.13;6.30;;;;;;;;;;10537246;28;20024;-59
2023/10/10 07:50:55;;;;;;;14.10;7.07;;;;;;;;;;10537677;28;20123;-64
2023/10/10 08:01:09;;;;;;;10.95;6.25;;;;;;;;;;10536303;28;20027;-61
2023/10/10 08:06:12;;;;;;;12.35;5.90;;;;;;;;;;10533763;28;20024;-63
2023/10/10 08:11:12;;;;;;;9.82;6.45;;;;;;;;;;10531650;28;20115;-61
2023/10/10 08:16:19;;;;;;;11.50;6.43;;;;;;;;;;10536585;28;20024;-62
2023/10/10 08:21:23;;;;;;;14.15;7.18;;;;;;;;;;10535037;28;20083;-59
2023/10/10 08:26:26;;;;;;;19.75;7.00;;;;;;;;;;10535091;28;20364;-65
2023/10/10 08:31:27;;;;;;;11.00;6.43;;;;;;;;;;10535765;28;20107;-65
2023/10/10 08:36:27;;;;;;;11.10;6.05;;;;;;;;;;10535688;28;20463;-61
2023/10/10 08:41:31;;;;;;;9.98;6.05;;;;;;;;;;10534767;28;20501;-60
2023/10/10 08:46:40;;;;;;;17.10;6.88;;;;;;;;;;10533364;28;20089;-61
2023/10/10 08:51:45;;;;;;;11.15;6.78;;;;;;;;;;10534162;28;20353;-65
2023/10/10 08:57:09;;;;;;;19.48;7.15;;;;;;;;;;10534453;28;20028;-61
2023/10/10 09:02:16;;;;;;;9.77;6.50;;;;;;;;;;10534675;28;20035;-60
2023/10/10 09:07:30;;;;;;;17.08;7.05;;;;;;;;;;10533840;28;20020;-60
2023/10/10 09:12:52;;;;;;;15.55;6.03;;;;;;;;;;10534186;28;20024;-59
2023/10/10 09:18:11;;;;;;;12.15;6.63;;;;;;;;;;10532733;28;20321;-60
2023/10/10 09:23:23;;;;;;;12.73;6.18;;;;;;;;;;10533099;28;20107;-64
2023/10/10 09:28:30;;;;;;;12.95;7.05;;;;;;;;;;10533271;28;20066;-61
2023/10/10 09:33:33;;;;;;;11.88;7.20;;;;;;;;;;10533684;28;20077;-62
2023/10/10 09:38:45;;;;;;;14.30;6.78;;;;;;;;;;10533427;28;20024;-61
2023/10/10 09:49:43;;;;;;;10.43;6.95;;;;;;;;;;10532826;28;20472;-59
2023/10/10 09:54:45;;;;;;;13.20;7.57;;;;;;;;;;10531576;28;20079;-65
2023/10/10 09:59:53;;;;;;;15.15;6.85;;;;;;;;;;10532224;28;20031;-60
2023/10/10 10:04:54;;;;;;;11.73;7.40;;;;;;;;;;10533058;28;20078;-59
2023/10/10 10:10:33;;;;;;;10.48;7.18;;;;;;;;;;10530818;28;20173;-66
2023/10/10 10:16:09;;;;;;;9.73;6.50;;;;;;;;;;10502835;28;20040;-65
2023/10/10 10:21:27;;;;;;;18.70;7.88;;;;;;;;;;10532418;28;20024;-64
2023/10/10 10:26:34;;;;;;;13.35;7.03;;;;;;;;;;10538290;28;20032;-65
2023/10/10 10:31:37;;;;;;;10.48;6.68;;;;;;;;;;10540718;28;20040;-61
2023/10/10 10:36:50;;;;;;;12.95;7.32;;;;;;;;;;10540456;28;20027;-61
2023/10/10 10:41:59;;;;;;;14.73;7.68;;;;;;;;;;10538983;28;20502;-63
2023/10/10 10:47:03;;;;;;;17.20;8.15;;;;;;;;;;10538332;28;20467;-66
2023/10/10 10:52:17;;;;;;;15.35;7.70;;;;;;;;;;10539517;28;20031;-64
2023/10/10 10:57:27;;;;;;;12.77;7.35;;;;;;;;;;10539624;28;20109;-60
2023/10/10 11:02:32;;;;;;;14.98;8.13;;;;;;;;;;10538829;28;20028;-65
2023/10/10 11:07:41;;;;;;;11.05;8.07;;;;;;;;;;10539176;28;20035;-62
2023/10/10 11:12:41;;;;;;;11.82;7.97;;;;;;;;;;10538984;28;20427;-59
2023/10/10 11:17:51;;;;;;;11.45;7.57;;;;;;;;;;10538976;28;20031;-59
2023/10/10 11:22:55;;;;;;;12.88;8.18;;;;;;;;;;10538288;28;20020;-60
2023/10/10 11:28:03;;;;;;;13.20;8.02;;;;;;;;;;10536506;28;20032;-63
2023/10/10 11:33:19;;;;;;;12.80;8.02;;;;;;;;;;10537612;28;20020;-65
2023/10/10 11:38:35;;;;;;;15.13;8.25;;;;;;;;;;10537108;28;20055;-65
2023/10/10 11:44:03;;;;;;;11.07;8.57;;;;;;;;;;10534935;28;20363;-64
2023/10/10 11:49:04;;;;;;;13.63;8.63;;;;;;;;;;10536994;28;20111;-64
2023/10/10 11:54:05;;;;;;;13.52;8.93;;;;;;;;;;10535552;28;20124;-63
2023/10/10 11:59:14;;;;;;;12.63;8.38;;;;;;;;;;10537094;28;20039;-64
2023/10/10 12:04:20;;;;;;;23.77;8.63;;;;;;;;;;10537209;28;20027;-63
2023/10/10 12:09:21;;;;;;;14.38;8.45;;;;;;;;;;10536886;28;20032;-64
2023/10/10 12:14:24;;;;;;;14.07;9.40;;;;;;;;;;10536903;28;20027;-64
2023/10/10 12:19:36;;;;;;;15.07;9.68;;;;;;;;;;10536203;28;20031;-64
2023/10/10 12:24:39;;;;;;;24.15;12.02;;;;;;;;;;10536090;28;20039;-63
2023/10/10 12:29:40;;;;;;;18.67;10.45;;;;;;;;;;10535631;28;20494;-63
2023/10/10 12:34:42;;;;;;;20.33;10.73;;;;;;;;;;10534802;28;20024;-63
2023/10/10 12:39:44;;;;;;;18.70;12.20;;;;;;;;;;10534442;28;20042;-63
2023/10/10 12:44:47;;;;;;;32.78;10.98;;;;;;;;;;10534885;28;20406;-63
2023/10/10 12:49:48;;;;;;;17.02;10.40;;;;;;;;;;10533995;28;20078;-61
2023/10/10 12:54:57;;;;;;;21.83;11.52;;;;;;;;;;10535377;28;20494;-61
2023/10/10 13:00:23;;;;;;;15.00;10.88;;;;;;;;;;10534763;28;20105;-61
2023/10/10 13:05:18;;;;;;;17.38;11.85;;;;;;;;;;10534203;28;20035;-61
2023/10/10 13:10:19;;;;;;;19.83;11.75;;;;;;;;;;10534458;28;20032;-63
2023/10/10 13:15:27;;;;;;;23.10;11.45;;;;;;;;;;10533953;28;20020;-63
2023/10/10 13:20:28;;;;;;;23.20;12.57;;;;;;;;;;10534726;28;20031;-61
2023/10/10 13:25:28;;;;;;;21.40;12.35;;;;;;;;;;10533699;28;20046;-63
2023/10/10 13:30:29;;;;;;;18.38;12.07;;;;;;;;;;10533604;28;20039;-60
2023/10/10 13:35:30;;;;;;;24.55;11.15;;;;;;;;;;10533388;28;20024;-63
2023/10/10 13:40:37;;;;;;;25.00;12.02;;;;;;;;;;10533130;28;20020;-62
2023/10/10 13:45:38;;;;;;;20.48;12.10;;;;;;;;;;10533314;28;20028;-63
2023/10/10 13:50:42;;;;;;;17.42;10.63;;;;;;;;;;10532620;28;20058;-63
2023/10/10 13:55:46;;;;;;;20.02;11.13;;;;;;;;;;10532972;28;20085;-64
2023/10/10 14:00:55;;;;;;;20.40;12.18;;;;;;;;;;10532349;28;20475;-62
2023/10/10 14:06:08;;;;;;;21.75;11.60;;;;;;;;;;10533035;28;20024;-60
2023/10/10 14:11:08;;;;;;;17.02;10.15;;;;;;;;;;10530719;28;20036;-60
2023/10/10 14:16:09;;;;;;;17.77;11.07;;;;;;;;;;10531862;28;20028;-62
2023/10/10 14:21:11;;;;;;;16.88;10.45;;;;;;;;;;10531876;28;20558;-64
2023/10/10 14:26:12;;;;;;;23.05;11.30;;;;;;;;;;10531756;28;20077;-63
2023/10/10 14:31:13;;;;;;;16.05;10.30;;;;;;;;;;10531890;28;20379;-62
2023/10/10 14:36:14;;;;;;;15.43;9.60;;;;;;;;;;10532559;28;20032;-60
2023/10/10 14:41:30;;;;;;;15.90;10.15;;;;;;;;;;10531040;28;20290;-62
2023/10/10 14:46:32;;;;;;;18.85;10.63;;;;;;;;;;10529917;28;20497;-62
2023/10/10 14:51:35;;;;;;;15.27;9.82;;;;;;;;;;10531204;28;20032;-61
2023/10/10 14:56:37;;;;;;;11.25;8.93;;;;;;;;;;10531254;28;20024;-62
2023/10/10 15:01:38;;;;;;;16.08;9.93;;;;;;;;;;10531411;28;20039;-63
2023/10/10 15:06:42;;;;;;;17.48;9.85;;;;;;;;;;10531203;28;20043;-62
2023/10/10 15:11:45;;;;;;;11.55;9.32;;;;;;;;;;10532729;28;20032;-63
2023/10/10 15:16:47;;;;;;;15.50;9.55;;;;;;;;;;10537312;28;20103;-61
2023/10/10 15:21:48;;;;;;;17.40;9.95;;;;;;;;;;10535415;28;20028;-62
2023/10/10 15:26:51;;;;;;;12.98;10.38;;;;;;;;;;10538487;28;20028;-63
2023/10/10 15:31:51;;;;;;;14.60;9.95;;;;;;;;;;10538163;28;20031;-65
2023/10/10 15:36:52;;;;;;;18.33;10.23;;;;;;;;;;10537840;28;20395;-63
2023/10/10 15:41:52;;;;;;;18.20;10.23;;;;;;;;;;10537198;28;20024;-60
2023/10/10 15:46:58;;;;;;;18.45;10.65;;;;;;;;;;10537394;28;20039;-62
2023/10/10 15:52:03;;;;;;;19.98;11.45;;;;;;;;;;10537778;28;20028;-61
2023/10/10 15:57:08;;;;;;;20.52;10.85;;;;;;;;;;10536634;28;20107;-60
2023/10/10 16:02:09;;;;;;;16.38;10.65;;;;;;;;;;10537475;28;20059;-63
2023/10/10 16:07:11;;;;;;;17.92;12.48;;;;;;;;;;10536961;28;20085;-61
2023/10/10 16:12:12;;;;;;;19.45;12.55;;;;;;;;;;10536527;28;20275;-63
2023/10/10 16:17:15;;;;;;;16.17;12.77;;;;;;;;;;10536261;28;20178;-62
2023/10/10 16:22:17;;;;;;;20.77;12.27;;;;;;;;;;10535385;28;20028;-63
2023/10/10 16:27:17;;;;;;;20.48;13.38;;;;;;;;;;10535738;28;20028;-62
2023/10/10 16:32:18;;;;;;;24.05;12.82;;;;;;;;;;10534908;28;20028;-59
2023/10/10 16:37:20;;;;;;;24.08;13.32;;;;;;;;;;10535685;28;20271;-60
2023/10/10 16:42:23;;;;;;;24.67;13.73;;;;;;;;;;10534862;28;20031;-60
2023/10/10 16:47:23;;;;;;;21.50;12.80;;;;;;;;;;10534006;28;20068;-62
2023/10/10 16:52:25;;;;;;;26.15;12.88;;;;;;;;;;10534634;28;20028;-62
2023/10/10 16:57:26;;;;;;;21.35;12.65;;;;;;;;;;10533960;28;20036;-60
2023/10/10 17:02:27;;;;;;;19.67;12.95;;;;;;;;;;10533320;28;20024;-60
2023/10/10 17:07:28;;;;;;;17.67;11.90;;;;;;;;;;10530535;28;20024;-63
2023/10/10 17:12:28;;;;;;;21.95;12.48;;;;;;;;;;10533714;28;20111;-61
2023/10/10 17:17:29;;;;;;;16.52;11.73;;;;;;;;;;10532916;28;20028;-59
2023/10/10 17:22:30;;;;;;;17.67;11.57;;;;;;;;;;10534247;28;20035;-60
2023/10/10 17:27:33;;;;;;;17.50;12.00;;;;;;;;;;10532828;28;20371;-61
2023/10/10 17:32:34;;;;;;;18.55;11.13;;;;;;;;;;10532639;28;20490;-63
2023/10/10 17:37:35;;;;;;;20.20;13.20;;;;;;;;;;10532062;28;20349;-64
2023/10/10 17:42:35;;;;;;;21.60;13.95;;;;;;;;;;10533114;28;20021;-64
2023/10/10 17:47:36;;;;;;;22.42;12.68;;;;;;;;;;10532448;28;20044;-64
2023/10/10 17:52:37;;;;;;;17.98;13.18;;;;;;;;;;10531596;28;20024;-65
2023/10/10 17:57:38;;;;;;;19.80;13.52;;;;;;;;;;10532448;28;20023;-64
2023/10/10 18:02:38;;;;;;;18.08;13.02;;;;;;;;;;10532915;28;20497;-65
2023/10/10 18:07:39;;;;;;;20.15;12.93;;;;;;;;;;10532155;28;20429;-62
2023/10/10 18:12:40;;;;;;;23.83;13.65;;;;;;;;;;10531413;28;20047;-65
2023/10/10 18:17:42;;;;;;;22.65;14.10;;;;;;;;;;10531911;28;20107;-65
2023/10/10 18:22:46;;;;;;;21.50;13.50;;;;;;;;;;10532888;28;20027;-65
2023/10/10 18:27:47;;;;;;;21.73;12.85;;;;;;;;;;10532490;28;20032;-62
2023/10/10 18:32:49;;;;;;;23.15;13.30;;;;;;;;;;10531236;28;20518;-62
2023/10/10 18:37:51;;;;;;;24.50;12.90;;;;;;;;;;10532651;28;20082;-62
2023/10/10 18:42:51;;;;;;;25.60;13.00;;;;;;;;;;10531067;28;20020;-65
2023/10/10 18:47:52;;;;;;;19.73;12.70;;;;;;;;;;10536103;28;20062;-65
2023/10/10 18:52:56;;;;;;;14.18;12.00;;;;;;;;;;10539537;28;20020;-65
2023/10/10 18:58:00;;;;;;;20.50;13.18;;;;;;;;;;10538422;28;20020;-63
2023/10/10 19:03:00;;;;;;;24.83;13.05;;;;;;;;;;10539882;28;20028;-64
2023/10/10 19:08:03;;;;;;;18.15;13.15;;;;;;;;;;10538557;28;20036;-65
2023/10/10 19:13:04;;;;;;;18.95;12.77;;;;;;;;;;10538927;28;20032;-65
2023/10/10 19:18:06;;;;;;;22.20;13.45;;;;;;;;;;10538563;28;20028;-63
2023/10/10 19:23:09;;;;;;;23.95;14.02;;;;;;;;;;10538671;28;20288;-64
2023/10/10 19:28:09;;;;;;;21.85;14.38;;;;;;;;;;10539225;28;20029;-64
2023/10/10 19:33:12;;;;;;;18.38;13.63;;;;;;;;;;10536759;28;20054;-65
2023/10/10 19:38:12;;;;;;;23.15;14.73;;;;;;;;;;10537085;28;20032;-65
2023/10/10 19:43:13;;;;;;;23.25;14.68;;;;;;;;;;10537710;28;20024;-65
2023/10/10 19:48:17;;;;;;;24.27;15.73;;;;;;;;;;10537408;28;20044;-65
2023/10/10 19:53:18;;;;;;;23.88;16.70;;;;;;;;;;10536770;28;20448;-65
2023/10/10 19:58:20;;;;;;;26.27;16.85;;;;;;;;;;10536974;28;20024;-65
2023/10/10 20:03:27;;;;;;;24.25;16.42;;;;;;;;;;10537849;28;20077;-65
2023/10/10 20:08:28;;;;;;;24.55;18.08;;;;;;;;;;10533773;28;20085;-65
2023/10/10 20:13:29;;;;;;;23.33;16.92;;;;;;;;;;10533776;28;20055;-65
2023/10/10 20:18:30;;;;;;;25.42;18.20;;;;;;;;;;10536429;28;20379;-65
2023/10/10 20:23:31;;;;;;;23.25;18.13;;;;;;;;;;10535488;28;20028;-65
2023/10/10 20:28:31;;;;;;;26.98;17.92;;;;;;;;;;10535707;28;20086;-65
2023/10/10 20:33:33;;;;;;;28.45;18.73;;;;;;;;;;10536170;28;20020;-65
2023/10/10 20:38:33;;;;;;;29.25;18.83;;;;;;;;;;10535790;28;20047;-65
2023/10/10 20:43:36;;;;;;;28.52;18.58;;;;;;;;;;10535538;28;20043;-63
2023/10/10 20:48:36;;;;;;;23.40;18.27;;;;;;;;;;10534849;28;20056;-64
2023/10/10 20:53:37;;;;;;;29.05;18.25;;;;;;;;;;10534913;28;20104;-63
2023/10/10 20:58:38;;;;;;;29.10;19.50;;;;;;;;;;10534268;28;20024;-63
2023/10/10 21:03:38;;;;;;;23.05;18.90;;;;;;;;;;10533681;28;20031;-65
2023/10/10 21:08:39;;;;;;;24.30;19.17;;;;;;;;;;10533427;28;20231;-64
2023/10/10 21:13:40;;;;;;;25.80;18.27;;;;;;;;;;10534053;28;20104;-65
2023/10/10 21:18:41;;;;;;;25.85;19.55;;;;;;;;;;10533682;28;20467;-65
2023/10/10 21:23:42;;;;;;;27.85;19.45;;;;;;;;;;10533213;28;20066;-64
2023/10/10 21:28:44;;;;;;;26.08;19.05;;;;;;;;;;10533478;28;20122;-64
2023/10/10 21:33:45;;;;;;;26.08;18.67;;;;;;;;;;10533273;28;20050;-65
2023/10/10 21:38:46;;;;;;;24.35;17.98;;;;;;;;;;10533124;28;20034;-62
2023/10/10 21:43:46;;;;;;;28.20;18.83;;;;;;;;;;10532286;28;20032;-62
2023/10/10 21:48:48;;;;;;;27.00;19.08;;;;;;;;;;10531229;28;20051;-62
2023/10/10 21:53:48;;;;;;;27.55;19.10;;;;;;;;;;10533657;28;20035;-62
2023/10/10 21:58:49;;;;;;;26.52;18.73;;;;;;;;;;10532830;28;20035;-62
2023/10/10 22:03:50;;;;;;;25.17;18.05;;;;;;;;;;10532420;28;20024;-61
2023/10/10 22:08:51;;;;;;;24.02;18.23;;;;;;;;;;10532289;28;20049;-62
2023/10/10 22:13:51;;;;;;;26.15;17.80;;;;;;;;;;10531929;28;20024;-62
2023/10/10 22:18:52;;;;;;;32.47;17.83;;;;;;;;;;10532536;28;20047;-62
2023/10/10 22:23:52;;;;;;;22.10;16.83;;;;;;;;;;10539714;28;20028;-61
2023/10/10 22:28:53;;;;;;;23.35;17.25;;;;;;;;;;10538541;28;20069;-62
2023/10/10 22:33:54;;;;;;;24.02;16.42;;;;;;;;;;10540352;28;20031;-62
2023/10/10 22:38:54;;;;;;;22.38;16.25;;;;;;;;;;10540383;28;20039;-61
2023/10/10 22:43:55;;;;;;;25.05;16.02;;;;;;;;;;10540506;28;20020;-61
2023/10/10 22:48:57;;;;;;;24.73;16.08;;;;;;;;;;10539672;28;20581;-62
2023/10/10 22:54:01;;;;;;;23.73;15.10;;;;;;;;;;10539633;28;20036;-62
2023/10/10 22:59:04;;;;;;;17.48;13.98;;;;;;;;;;10539265;28;20532;-62
2023/10/10 23:04:07;;;;;;;20.17;15.65;;;;;;;;;;10538950;28;20093;-61
2023/10/10 23:09:07;;;;;;;21.45;15.25;;;;;;;;;;10539545;28;20038;-61
2023/10/10 23:14:09;;;;;;;20.88;14.13;;;;;;;;;;10538586;28;20028;-61
2023/10/10 23:19:10;;;;;;;28.52;15.10;;;;;;;;;;10538433;28;20550;-62
2023/10/10 23:24:11;;;;;;;27.42;15.10;;;;;;;;;;10538248;28;20117;-62
2023/10/10 23:29:12;;;;;;;22.60;14.68;;;;;;;;;;10538058;28;20471;-61
2023/10/10 23:34:14;;;;;;;21.05;13.32;;;;;;;;;;10537381;28;20032;-61
2023/10/10 23:39:16;;;;;;;22.67;12.70;;;;;;;;;;10537684;28;20073;-62
2023/10/10 23:44:16;;;;;;;20.27;13.50;;;;;;;;;;10537790;28;20052;-63
2023/10/10 23:49:17;;;;;;;26.35;12.75;;;;;;;;;;10537040;28;20044;-62
2023/10/10 23:54:18;;;;;;;23.67;13.35;;;;;;;;;;10536935;28;20028;-62
2023/10/10 23:59:20;;;;;;;16.83;11.70;;;;;;;;;;10536893;28;20498;-63
